Time;durP1;ratioP1;P1;durP2;ratioP2;P2;SDS_P1;SDS_P2;PMS_P1;PMS_P2;Temp;Humidity;BMP_temperature;BMP_pressure;BME280_temperature;BME280_humidity;BME280_pressure;Samples;Min_cycle;Max_cycle;Signal;HPM_P1;HPM_P2
2022/07/06 00:00:40;;;;;;;;;;;;;;;17.34;100.00;100028.84;3056194;19;825;-52
2022/07/06 00:01:45;;;;;;;;;;;;;;;17.33;100.00;100035.25;3056183;19;1262;-51
2022/07/06 00:02:47;;;;;;;;;;;;;;;17.33;100.00;100027.16;3056282;19;963;-52
2022/07/06 00:03:51;;;;;;;;;;;;;;;17.31;100.00;100030.00;3055557;19;977;-51
2022/07/06 00:04:57;;;;;;;;;;;;;;;17.32;100.00;100020.06;3055793;19;1254;-51
2022/07/06 00:06:01;;;;;;;;;;;;;;;17.32;100.00;100031.69;3055951;19;960;-51
2022/07/06 00:07:03;;;;;;;;;;;;;;;17.32;100.00;100026.31;3056258;19;947;-51
2022/07/06 00:08:08;;;;;;;;;;;;;;;17.32;100.00;100029.00;3055963;19;866;-51
2022/07/06 00:09:10;;;;;;;;;;;;;;;17.32;100.00;100020.06;3055939;19;921;-51
2022/07/06 00:10:14;;;;;;;;;;;;;;;17.33;100.00;100028.00;3055559;19;977;-51
2022/07/06 00:11:16;;;;;;;;;;;;;;;17.33;100.00;100029.84;3056122;19;964;-51
2022/07/06 00:12:20;;;;;;;;;;;;;;;17.32;100.00;100026.31;3055828;19;864;-51
2022/07/06 00:13:22;;;;;;;;;;;;;;;17.32;100.00;100010.13;3056297;19;896;-51
2022/07/06 00:14:27;;;;;;;;;;;;;;;17.34;100.00;100024.31;3055663;19;949;-51
2022/07/06 00:15:28;;;;;;;;;;;;;;;17.36;100.00;100022.31;3056228;19;939;-51
2022/07/06 00:16:33;;;;;;;;;;;;;;;17.24;100.00;99997.38;3054891;19;962;-50
2022/07/06 00:17:35;;;;;;;;;;;;;;;17.38;100.00;100014.06;3055235;19;1019;-51
2022/07/06 00:18:39;;;;;;;;;;;;;;;17.37;100.00;100013.22;3055621;19;976;-51
2022/07/06 00:19:41;;;;;;;;;;;;;;;17.36;100.00;100007.97;3054887;19;1842;-51
2022/07/06 00:20:46;;;;;;;;;;;;;;;17.36;100.00;100006.13;3054732;19;1075;-51
2022/07/06 00:21:48;;;;;;;;;;;;;;;17.37;100.00;100015.06;3055319;19;999;-51
2022/07/06 00:22:52;;;;;;;;;;;;;;;17.38;100.00;100020.31;3054598;19;916;-51
2022/07/06 00:23:54;;;;;;;;;;;;;;;17.38;100.00;100008.69;3056079;19;872;-51
2022/07/06 00:24:58;;;;;;;;;;;;;;;17.36;100.00;100016.91;3055624;19;896;-50
2022/07/06 00:26:00;;;;;;;;;;;;;;;17.36;100.00;100022.31;3055965;19;1353;-50
2022/07/06 00:27:05;;;;;;;;;;;;;;;17.36;100.00;100008.84;3055581;19;889;-51
2022/07/06 00:28:07;;;;;;;;;;;;;;;17.38;100.00;100014.94;3055959;19;1003;-50
2022/07/06 00:29:11;;;;;;;;;;;;;;;17.37;100.00;100015.06;3056149;19;952;-51
2022/07/06 00:30:14;;;;;;;;;;;;;;;17.36;100.00;100006.13;3056098;19;885;-51
2022/07/06 00:31:18;;;;;;;;;;;;;;;17.36;100.00;100008.84;3054593;19;1023;-51
2022/07/06 00:32:20;;;;;;;;;;;;;;;17.35;100.00;100009.81;3055347;19;892;-51
2022/07/06 00:33:25;;;;;;;;;;;;;;;17.24;100.00;99997.38;3054856;19;1103;-51
2022/07/06 00:34:27;;;;;;;;;;;;;;;17.35;100.00;100007.13;3055231;19;988;-51
2022/07/06 00:35:31;;;;;;;;;;;;;;;17.35;100.00;100012.53;3054531;19;1770;-50
2022/07/06 00:36:33;;;;;;;;;;;;;;;17.36;100.00;100010.69;3055094;19;1742;-51
2022/07/06 00:37:37;;;;;;;;;;;;;;;17.36;100.00;100011.53;3054188;19;1663;-50
2022/07/06 00:38:39;;;;;;;;;;;;;;;17.35;100.00;99999.03;3054990;19;1028;-50
2022/07/06 00:39:44;;;;;;;;;;;;;;;17.35;100.00;99995.50;3054089;19;1873;-50
2022/07/06 00:40:46;;;;;;;;;;;;;;;17.37;100.00;100010.53;3055745;19;1010;-50
2022/07/06 00:41:50;;;;;;;;;;;;;;;17.38;100.00;99998.75;3055118;19;877;-51
2022/07/06 00:42:52;;;;;;;;;;;;;;;17.39;100.00;99997.72;3055653;19;852;-50
2022/07/06 00:43:57;;;;;;;;;;;;;;;17.40;100.00;100001.25;3055319;19;901;-51
2022/07/06 00:44:59;;;;;;;;;;;;;;;17.41;100.00;99998.41;3055930;19;881;-50
2022/07/06 00:46:04;;;;;;;;;;;;;;;17.42;100.00;99983.09;3055845;19;933;-51
2022/07/06 00:47:07;;;;;;;;;;;;;;;17.44;100.00;99987.34;3055781;19;1019;-50
2022/07/06 00:48:12;;;;;;;;;;;;;;;17.46;100.00;99982.66;3055615;19;941;-51
2022/07/06 00:50:34;;;;;;;;;;;;;;;17.51;100.00;99977.63;3055154;19;2575;-50
2022/07/06 00:51:36;;;;;;;;;;;;;;;17.53;100.00;99985.56;3054501;19;1074;-50
2022/07/06 00:52:41;;;;;;;;;;;;;;;17.53;100.00;99983.72;3054493;19;1187;-51
2022/07/06 00:53:43;;;;;;;;;;;;;;;17.55;100.00;99984.44;3054776;19;868;-51
2022/07/06 00:54:47;;;;;;;;;;;;;;;17.55;100.00;99995.22;3054163;19;979;-51
2022/07/06 00:55:49;;;;;;;;;;;;;;;17.55;100.00;99995.22;3054737;19;976;-51
2022/07/06 00:56:54;;;;;;;;;;;;;;;17.55;100.00;99995.22;3054490;19;1687;-50
2022/07/06 00:57:56;;;;;;;;;;;;;;;17.56;100.00;99991.53;3054589;19;1710;-50
2022/07/06 00:59:02;;;;;;;;;;;;;;;17.55;100.00;99984.44;3053283;19;1011;-51
2022/07/06 01:00:05;;;;;;;;;;;;;;;17.58;100.00;99996.78;3054459;19;1866;-51
2022/07/06 01:01:09;;;;;;;;;;;;;;;17.57;100.00;99993.22;3054255;19;973;-52
2022/07/06 01:02:11;;;;;;;;;;;;;;;17.57;100.00;99987.84;3055835;19;857;-51
2022/07/06 01:03:16;;;;;;;;;;;;;;;17.56;100.00;99986.13;3055110;19;1779;-51
2022/07/06 01:04:18;;;;;;;;;;;;;;;17.58;100.00;99983.28;3055357;19;968;-51
2022/07/06 01:05:22;;;;;;;;;;;;;;;17.58;100.00;99981.44;3055473;19;1332;-51
2022/07/06 01:06:24;;;;;;;;;;;;;;;17.58;100.00;99970.66;3054421;19;1233;-50
2022/07/06 01:07:30;;;;;;;;;;;;;;;17.59;100.00;99975.03;3054870;19;917;-51
2022/07/06 01:08:32;;;;;;;;;;;;;;;17.61;100.00;99978.44;3054834;19;1341;-51
2022/07/06 01:09:36;;;;;;;;;;;;;;;17.62;100.00;99977.44;3054384;19;909;-51
2022/07/06 01:10:38;;;;;;;;;;;;;;;17.63;100.00;99975.59;3055161;19;813;-50
2022/07/06 01:11:42;;;;;;;;;;;;;;;17.63;100.00;99965.66;3054455;19;1691;-51
2022/07/06 01:12:46;;;;;;;;;;;;;;;17.64;100.00;99970.06;3054324;19;1000;-51
2022/07/06 01:13:51;;;;;;;;;;;;;;;17.62;100.00;99966.66;3054647;19;1137;-51
2022/07/06 01:14:53;;;;;;;;;;;;;;;17.62;100.00;99974.75;3054549;19;952;-50
2022/07/06 01:15:57;;;;;;;;;;;;;;;17.62;100.00;99972.06;3055964;19;1598;-50
2022/07/06 01:16:59;;;;;;;;;;;;;;;17.62;100.00;99969.34;3057649;19;924;-51
2022/07/06 01:18:04;;;;;;;;;;;;;;;17.61;100.00;99973.03;3057402;19;996;-50
2022/07/06 01:19:06;;;;;;;;;;;;;;;17.60;100.00;99971.34;3057536;19;978;-51
2022/07/06 01:20:31;;;;;;;;;;;;;;;17.59;100.00;99969.66;3056979;19;1857;-51
2022/07/06 01:21:33;;;;;;;;;;;;;;;17.58;100.00;99978.75;3057172;19;1350;-51
2022/07/06 01:22:37;;;;;;;;;;;;;;;17.56;100.00;99978.03;3057691;19;947;-52
2022/07/06 01:23:40;;;;;;;;;;;;;;;17.55;100.00;99976.34;3057327;19;960;-50
2022/07/06 01:24:44;;;;;;;;;;;;;;;17.54;100.00;99971.94;3057523;19;948;-51
2022/07/06 01:25:46;;;;;;;;;;;;;;;17.54;100.00;99971.94;3057804;19;1001;-51
2022/07/06 01:26:50;;;;;;;;;;;;;;;17.53;100.00;99975.63;3057134;19;1000;-50
2022/07/06 01:27:52;;;;;;;;;;;;;;;17.53;100.00;99977.47;3057167;19;960;-51
2022/07/06 01:28:57;;;;;;;;;;;;;;;17.52;100.00;99979.31;3057272;19;1030;-50
2022/07/06 01:29:59;;;;;;;;;;;;;;;17.54;100.00;99976.47;3058279;19;1026;-51
2022/07/06 01:31:03;;;;;;;;;;;;;;;17.53;100.00;99969.38;3056871;19;988;-51
2022/07/06 01:32:05;;;;;;;;;;;;;;;17.53;100.00;99978.34;3056982;19;944;-51
2022/07/06 01:33:10;;;;;;;;;;;;;;;17.54;100.00;99969.25;3058279;19;865;-52
2022/07/06 01:34:12;;;;;;;;;;;;;;;17.54;100.00;99963.84;3058068;19;948;-52
2022/07/06 01:35:17;;;;;;;;;;;;;;;17.56;100.00;99975.34;3057970;19;893;-51
2022/07/06 01:36:19;;;;;;;;;;;;;;;17.57;100.00;99965.41;3055240;19;964;-51
2022/07/06 01:37:24;;;;;;;;;;;;;;;17.59;100.00;99969.66;3057395;19;857;-51
2022/07/06 01:38:25;;;;;;;;;;;;;;;17.59;100.00;99958.84;3056976;19;933;-51
2022/07/06 01:39:30;;;;;;;;;;;;;;;17.61;100.00;99961.41;3057146;19;1081;-51
2022/07/06 01:40:32;;;;;;;;;;;;;;;17.61;100.00;99962.25;3056498;19;1846;-52
2022/07/06 01:41:36;;;;;;;;;;;;;;;17.61;100.00;99975.75;3058024;19;864;-51
2022/07/06 01:42:39;;;;;;;;;;;;;;;17.63;100.00;99954.00;3057226;19;948;-51
2022/07/06 01:43:43;;;;;;;;;;;;;;;17.62;100.00;99958.56;3057019;19;968;-52
2022/07/06 01:44:45;;;;;;;;;;;;;;;17.63;100.00;99959.41;3056959;19;980;-51
2022/07/06 01:45:51;;;;;;;;;;;;;;;17.62;100.00;99963.97;3057084;19;1047;-52
2022/07/06 01:46:52;;;;;;;;;;;;;;;17.62;100.00;99963.97;3057073;19;956;-52
2022/07/06 01:47:57;;;;;;;;;;;;;;;17.63;100.00;99948.63;3057916;19;967;-51
2022/07/06 01:48:59;;;;;;;;;;;;;;;17.62;100.00;99953.16;3056863;19;1102;-52
2022/07/06 01:50:07;;;;;;;;;;;;;;;17.62;100.00;99958.56;3056919;19;898;-50
2022/07/06 01:51:11;;;;;;;;;;;;;;;17.64;100.00;99966.50;3056707;19;1185;-50
2022/07/06 01:52:17;;;;;;;;;;;;;;;17.64;100.00;99961.97;3057066;19;940;-51
2022/07/06 01:53:19;;;;;;;;;;;;;;;17.64;100.00;99961.97;3056938;19;1079;-51
2022/07/06 01:54:24;;;;;;;;;;;;;;;17.64;100.00;99953.88;3057017;19;961;-51
2022/07/06 01:55:26;;;;;;;;;;;;;;;17.64;100.00;99961.09;3057185;19;921;-50
2022/07/06 01:56:30;;;;;;;;;;;;;;;17.62;100.00;99958.56;3056673;19;1783;-50
2022/07/06 01:57:36;;;;;;;;;;;;;;;17.62;100.00;99958.56;3057202;19;1325;-51
2022/07/06 01:58:41;;;;;;;;;;;;;;;17.61;100.00;99956.84;3057077;19;1001;-52
2022/07/06 01:59:43;;;;;;;;;;;;;;;17.60;100.00;99947.06;3058120;19;853;-50
2022/07/06 02:00:50;;;;;;;;;;;;;;;17.60;100.00;99957.84;3056295;19;1860;-51
2022/07/06 02:01:52;;;;;;;;;;;;;;;17.60;100.00;99954.31;3056872;19;1137;-51
2022/07/06 02:02:56;;;;;;;;;;;;;;;17.60;100.00;99959.69;3056992;19;937;-51
2022/07/06 02:03:58;;;;;;;;;;;;;;;17.61;100.00;99950.63;3056965;19;1000;-51
2022/07/06 02:05:04;;;;;;;;;;;;;;;17.60;100.00;99949.75;3056240;19;997;-51
2022/07/06 02:06:07;;;;;;;;;;;;;;;17.61;100.00;99946.06;3056839;19;1105;-50
2022/07/06 02:07:11;;;;;;;;;;;;;;;17.60;100.00;99955.16;3056551;19;1051;-51
2022/07/06 02:08:14;;;;;;;;;;;;;;;17.61;100.00;99956.00;3056794;19;1059;-50
2022/07/06 02:09:18;;;;;;;;;;;;;;;17.60;100.00;99957.84;3056405;19;1806;-51
2022/07/06 02:10:20;;;;;;;;;;;;;;;17.62;100.00;99946.91;3056626;19;881;-51
2022/07/06 02:11:25;;;;;;;;;;;;;;;17.61;100.00;99962.25;3056886;19;905;-52
2022/07/06 02:12:27;;;;;;;;;;;;;;;17.61;100.00;99956.84;3056645;19;1417;-50
2022/07/06 02:13:31;;;;;;;;;;;;;;;17.62;100.00;99953.16;3056350;19;1696;-51
2022/07/06 02:14:34;;;;;;;;;;;;;;;17.61;100.00;99950.63;3057001;19;1004;-51
2022/07/06 02:15:39;;;;;;;;;;;;;;;17.61;100.00;99940.66;3056240;19;784;-50
2022/07/06 02:16:41;;;;;;;;;;;;;;;17.61;100.00;99950.63;3056767;19;1079;-51
2022/07/06 02:17:45;;;;;;;;;;;;;;;17.61;100.00;99951.47;3056458;19;917;-51
2022/07/06 02:18:47;;;;;;;;;;;;;;;17.60;100.00;99954.31;3056595;19;863;-51
2022/07/06 02:19:52;;;;;;;;;;;;;;;17.60;100.00;99947.06;3057138;19;953;-50
2022/07/06 02:20:55;;;;;;;;;;;;;;;17.59;100.00;99958.84;3056359;19;1857;-51
2022/07/06 02:21:59;;;;;;;;;;;;;;;17.57;100.00;99971.66;3056400;19;893;-51
2022/07/06 02:23:01;;;;;;;;;;;;;;;17.55;100.00;99968.25;3057455;19;956;-51
2022/07/06 02:24:06;;;;;;;;;;;;;;;17.55;100.00;99965.53;3055881;19;997;-51
2022/07/06 02:25:08;;;;;;;;;;;;;;;17.55;100.00;99973.63;3056597;19;1011;-51
2022/07/06 02:26:12;;;;;;;;;;;;;;;17.52;100.00;99973.94;3055972;19;1770;-50
2022/07/06 02:27:14;;;;;;;;;;;;;;;17.51;100.00;99972.22;3056530;19;1169;-51
2022/07/06 02:28:19;;;;;;;;;;;;;;;17.49;100.00;99976.09;3056476;19;1162;-51
2022/07/06 02:29:21;;;;;;;;;;;;;;;17.48;100.00;99977.97;3057795;19;964;-50
2022/07/06 02:30:26;;;;;;;;;;;;;;;17.48;100.00;99977.09;3056514;19;976;-51
2022/07/06 02:31:28;;;;;;;;;;;;;;;17.47;100.00;99981.66;3056919;19;848;-50
2022/07/06 02:32:32;;;;;;;;;;;;;;;17.47;100.00;99984.34;3056426;19;1003;-51
2022/07/06 02:33:34;;;;;;;;;;;;;;;17.47;100.00;99976.25;3056623;19;938;-50
2022/07/06 02:34:39;;;;;;;;;;;;;;;17.47;100.00;99973.56;3056430;19;980;-50
2022/07/06 02:35:42;;;;;;;;;;;;;;;17.52;100.00;99984.72;3056794;19;958;-50
2022/07/06 02:36:48;;;;;;;;;;;;;;;17.54;100.00;99981.88;3056251;19;1080;-50
2022/07/06 02:37:51;;;;;;;;;;;;;;;17.50;100.00;99978.66;3056617;19;913;-50
2022/07/06 02:38:55;;;;;;;;;;;;;;;17.51;100.00;99977.63;3056335;19;1051;-51
2022/07/06 02:39:57;;;;;;;;;;;;;;;17.51;100.00;99983.03;3056722;19;925;-51
2022/07/06 02:41:03;;;;;;;;;;;;;;;17.52;100.00;99976.63;3056333;19;968;-51
2022/07/06 02:42:05;;;;;;;;;;;;;;;17.54;100.00;99982.72;3055723;19;1898;-50
2022/07/06 02:43:10;;;;;;;;;;;;;;;17.54;100.00;99971.94;3056919;19;885;-50
2022/07/06 02:44:13;;;;;;;;;;;;;;;17.54;100.00;99971.94;3056429;19;1040;-50
2022/07/06 02:45:17;;;;;;;;;;;;;;;17.56;100.00;99978.03;3056510;19;1273;-50
2022/07/06 02:46:19;;;;;;;;;;;;;;;17.56;100.00;99975.34;3056436;19;947;-50
2022/07/06 02:47:25;;;;;;;;;;;;;;;17.56;100.00;99969.94;3055969;19;1024;-51
2022/07/06 02:48:27;;;;;;;;;;;;;;;17.56;100.00;99975.34;3056118;19;1430;-52
2022/07/06 02:49:32;;;;;;;;;;;;;;;17.55;100.00;99973.63;3056354;19;1044;-52
2022/07/06 02:50:34;;;;;;;;;;;;;;;17.54;100.00;99980.03;3056150;19;965;-51
2022/07/06 02:51:38;;;;;;;;;;;;;;;17.53;100.00;99970.25;3055029;19;1660;-50
2022/07/06 02:52:40;;;;;;;;;;;;;;;17.54;100.00;99977.34;3056198;19;964;-50
2022/07/06 02:53:47;;;;;;;;;;;;;;;17.53;100.00;99972.09;3056384;19;896;-50
2022/07/06 02:54:49;;;;;;;;;;;;;;;17.52;100.00;99973.94;3056266;19;949;-52
2022/07/06 02:55:54;;;;;;;;;;;;;;;17.50;100.00;99970.56;3056449;19;1023;-51
2022/07/06 02:56:57;;;;;;;;;;;;;;;17.49;100.00;99963.47;3056073;19;996;-52
2022/07/06 02:58:01;;;;;;;;;;;;;;;17.49;100.00;99974.25;3056183;19;1797;-50
2022/07/06 02:59:04;;;;;;;;;;;;;;;17.48;100.00;99975.25;3056054;19;1075;-50
2022/07/06 03:00:16;;;;;;;;;;;;;;;17.46;100.00;99969.16;3056365;19;878;-50
2022/07/06 03:01:18;;;;;;;;;;;;;;;17.45;100.00;99972.84;3056011;19;1145;-50
2022/07/06 03:02:23;;;;;;;;;;;;;;;17.45;100.00;99966.59;3055223;19;1854;-51
2022/07/06 03:03:25;;;;;;;;;;;;;;;17.46;100.00;99974.56;3056209;19;858;-51
2022/07/06 03:04:30;;;;;;;;;;;;;;;17.46;100.00;99969.16;3056388;19;1278;-50
2022/07/06 03:05:32;;;;;;;;;;;;;;;17.45;100.00;99978.25;3055921;19;1008;-50
2022/07/06 03:06:37;;;;;;;;;;;;;;;17.46;100.00;99966.47;3056257;19;1275;-51
2022/07/06 03:07:40;;;;;;;;;;;;;;;17.49;100.00;99962.63;3056041;19;961;-51
2022/07/06 03:08:45;;;;;;;;;;;;;;;17.49;100.00;99971.56;3056193;19;1087;-52
2022/07/06 03:09:47;;;;;;;;;;;;;;;17.52;100.00;99968.53;3055918;19;1024;-51
2022/07/06 03:10:51;;;;;;;;;;;;;;;17.54;100.00;99971.09;3055952;19;1787;-51
2022/07/06 03:11:53;;;;;;;;;;;;;;;17.56;100.00;99964.53;3056123;19;877;-51
2022/07/06 03:12:58;;;;;;;;;;;;;;;17.58;100.00;99956.31;3056260;19;951;-51
2022/07/06 03:14:02;;;;;;;;;;;;;;;17.59;100.00;99958.84;3056215;19;862;-50
2022/07/06 03:15:09;;;;;;;;;;;;;;;17.61;100.00;99950.63;3055961;19;1690;-50
2022/07/06 03:16:13;;;;;;;;;;;;;;;17.63;100.00;99949.47;3055948;19;940;-50
2022/07/06 03:17:17;;;;;;;;;;;;;;;17.67;100.00;99946.47;3055659;19;967;-52
2022/07/06 03:18:23;;;;;;;;;;;;;;;17.68;100.00;99940.06;3055846;19;976;-51
2022/07/06 03:19:26;;;;;;;;;;;;;;;17.71;100.00;99939.78;3056113;19;1036;-51
2022/07/06 03:20:30;;;;;;;;;;;;;;;17.75;100.00;99938.47;3055779;19;919;-51
2022/07/06 03:21:32;;;;;;;;;;;;;;;17.78;100.00;99946.25;3056122;19;1170;-50
2022/07/06 03:22:38;;;;;;;;;;;;;;;17.80;100.00;99946.94;3055015;19;1877;-50
2022/07/06 03:25:13;;;;;;;;;;;;;;;17.82;100.00;99953.03;3042405;19;1730;-50
2022/07/06 03:26:16;;;;;;;;;;;;;;;17.83;100.00;99949.34;3053832;19;1086;-50
2022/07/06 03:27:21;;;;;;;;;;;;;;;17.83;100.00;99944.78;3053581;19;999;-51
2022/07/06 03:28:23;;;;;;;;;;;;;;;17.84;100.00;99953.75;3055286;19;967;-52
2022/07/06 03:29:28;;;;;;;;;;;;;;;17.86;100.00;99946.34;3055351;19;1923;-51
2022/07/06 03:30:30;;;;;;;;;;;;;;;17.87;100.00;99945.34;3055614;19;1686;-50
2022/07/06 03:31:35;;;;;;;;;;;;;;;17.88;100.00;99947.00;3055813;19;1015;-50
2022/07/06 03:32:37;;;;;;;;;;;;;;;17.87;100.00;99934.53;3055970;19;860;-51
2022/07/06 03:33:43;;;;;;;;;;;;;;;17.84;100.00;99929.44;3057548;19;911;-50
2022/07/06 03:34:45;;;;;;;;;;;;;;;17.94;100.00;99943.72;3055796;19;900;-50
2022/07/06 03:35:49;;;;;;;;;;;;;;;17.98;100.00;99947.81;3056193;19;872;-50
2022/07/06 03:36:54;;;;;;;;;;;;;;;18.00;100.00;99943.06;3055805;19;981;-51
2022/07/06 03:37:56;;;;;;;;;;;;;;;18.03;100.00;99941.91;3055788;19;979;-50
2022/07/06 03:39:04;;;;;;;;;;;;;;;18.04;100.00;99930.97;3054484;19;929;-51
2022/07/06 03:40:08;;;;;;;;;;;;;;;18.08;100.00;99931.50;3056522;19;1456;-51
2022/07/06 03:41:12;;;;;;;;;;;;;;;18.11;100.00;99936.59;3055317;19;1811;-52
2022/07/06 03:42:14;;;;;;;;;;;;;;;18.14;100.00;99944.38;3055805;19;1862;-51
2022/07/06 03:43:19;;;;;;;;;;;;;;;18.17;100.00;99931.41;3055270;19;1736;-50
2022/07/06 03:44:21;;;;;;;;;;;;;;;18.22;100.00;99934.50;3055888;19;1117;-50
2022/07/06 03:45:25;;;;;;;;;;;;;;;18.24;100.00;99945.97;3056446;19;987;-50
2022/07/06 03:46:28;;;;;;;;;;;;;;;18.27;100.00;99947.53;3055512;19;1729;-52
2022/07/06 03:47:32;;;;;;;;;;;;;;;18.26;100.00;99933.16;3055710;19;875;-50
2022/07/06 03:48:34;;;;;;;;;;;;;;;18.25;100.00;99936.88;3055868;19;912;-52
2022/07/06 03:49:40;;;;;;;;;;;;;;;18.23;100.00;99938.06;3055701;19;912;-52
2022/07/06 03:50:43;;;;;;;;;;;;;;;18.17;100.00;99947.63;3055295;19;1356;-52
2022/07/06 03:51:48;;;;;;;;;;;;;;;18.14;100.00;99939.81;3055776;19;955;-50
2022/07/06 03:52:50;;;;;;;;;;;;;;;18.11;100.00;99937.47;3055627;19;897;-50
2022/07/06 03:53:54;;;;;;;;;;;;;;;18.07;100.00;99938.78;3055252;19;944;-51
2022/07/06 03:54:56;;;;;;;;;;;;;;;18.02;100.00;99951.88;3055404;19;1097;-52
2022/07/06 03:57:22;;;;;;;;;;;;;;;17.97;100.00;99936.16;3055288;19;980;-51
2022/07/06 03:58:24;;;;;;;;;;;;;;;17.95;100.00;99937.31;3055589;19;964;-50
2022/07/06 03:59:29;;;;;;;;;;;;;;;17.92;100.00;99940.31;3055563;19;933;-52
2022/07/06 04:00:31;;;;;;;;;;;;;;;17.90;100.00;99939.59;3055678;19;1354;-52
2022/07/06 04:01:40;;;;;;;;;;;;;;;17.89;100.00;99937.91;3055323;19;893;-50
2022/07/06 04:02:45;;;;;;;;;;;;;;;17.88;100.00;99937.06;3054996;19;1865;-50
2022/07/06 04:03:55;;;;;;;;;;;;;;;17.88;100.00;99938.91;3055553;19;1216;-50
2022/07/06 04:04:57;;;;;;;;;;;;;;;17.87;100.00;99939.94;3055307;19;1000;-50
2022/07/06 04:06:02;;;;;;;;;;;;;;;17.86;100.00;99944.50;3055507;19;984;-51
2022/07/06 04:07:04;;;;;;;;;;;;;;;17.87;100.00;99943.47;3055593;19;915;-51
2022/07/06 04:08:09;;;;;;;;;;;;;;;17.86;100.00;99943.63;3055375;19;1014;-51
2022/07/06 04:09:16;;;;;;;;;;;;;;;17.77;100.00;99934.59;3055608;19;972;-50
2022/07/06 04:10:22;;;;;;;;;;;;;;;17.84;100.00;99951.03;3055773;19;867;-50
2022/07/06 04:11:25;;;;;;;;;;;;;;;17.83;100.00;99954.75;3052203;19;1437;-51
2022/07/06 04:12:29;;;;;;;;;;;;;;;17.82;100.00;99942.25;3054818;19;1293;-50
2022/07/06 04:13:31;;;;;;;;;;;;;;;17.83;100.00;99942.09;3055483;19;1249;-50
2022/07/06 04:14:36;;;;;;;;;;;;;;;17.84;100.00;99951.88;3055855;19;1067;-50
2022/07/06 04:15:39;;;;;;;;;;;;;;;17.84;100.00;99945.63;3055618;19;1515;-51
2022/07/06 04:16:44;;;;;;;;;;;;;;;17.85;100.00;99950.03;3056116;19;1564;-49
2022/07/06 04:17:52;;;;;;;;;;;;;;;17.86;100.00;99936.41;3054502;19;1013;-52
2022/07/06 04:19:00;;;;;;;;;;;;;;;17.88;100.00;99949.72;3054875;19;971;-52
2022/07/06 04:20:03;;;;;;;;;;;;;;;17.89;100.00;99944.16;3054865;19;898;-51
2022/07/06 04:21:07;;;;;;;;;;;;;;;17.92;100.00;99943.84;3054931;19;1098;-50
2022/07/06 04:22:11;;;;;;;;;;;;;;;17.95;100.00;99938.16;3054947;19;949;-50
2022/07/06 04:23:15;;;;;;;;;;;;;;;17.98;100.00;99937.00;3054324;19;1850;-50
2022/07/06 04:24:20;;;;;;;;;;;;;;;17.97;100.00;99935.31;3055515;19;1261;-50
2022/07/06 04:25:21;;;;;;;;;;;;;;;17.98;100.00;99942.41;3054442;19;1175;-51
2022/07/06 04:26:26;;;;;;;;;;;;;;;17.99;100.00;99942.22;3055225;19;865;-52
2022/07/06 04:27:29;;;;;;;;;;;;;;;17.99;100.00;99944.09;3055522;19;939;-50
2022/07/06 04:28:34;;;;;;;;;;;;;;;17.97;100.00;99943.41;3055211;19;926;-52
2022/07/06 04:29:36;;;;;;;;;;;;;;;17.98;100.00;99947.81;3055244;19;984;-52
2022/07/06 04:30:40;;;;;;;;;;;;;;;17.98;100.00;99945.09;3055087;19;1491;-52
2022/07/06 04:31:48;;;;;;;;;;;;;;;17.98;100.00;99950.50;3055778;19;918;-52
2022/07/06 04:32:51;;;;;;;;;;;;;;;17.97;100.00;99940.72;3055072;19;1532;-51
2022/07/06 04:33:55;;;;;;;;;;;;;;;17.98;100.00;99942.41;3054923;19;1095;-50
2022/07/06 04:34:59;;;;;;;;;;;;;;;17.97;100.00;99940.72;3054486;19;996;-50
2022/07/06 04:36:03;;;;;;;;;;;;;;;17.93;100.00;99939.31;3055055;19;995;-50
2022/07/06 04:37:12;;;;;;;;;;;;;;;17.93;100.00;99942.00;3054752;19;1012;-51
2022/07/06 04:38:16;;;;;;;;;;;;;;;17.92;100.00;99937.59;3055147;19;932;-50
2022/07/06 04:39:19;;;;;;;;;;;;;;;17.92;100.00;99943.00;3054843;19;1012;-52
2022/07/06 04:40:24;;;;;;;;;;;;;;;17.91;100.00;99939.47;3055198;19;1208;-50
2022/07/06 04:41:30;;;;;;;;;;;;;;;17.91;100.00;99944.84;3054779;19;1005;-51
2022/07/06 04:42:35;;;;;;;;;;;;;;;17.91;100.00;99935.91;3055074;19;876;-50
2022/07/06 04:43:37;;;;;;;;;;;;;;;17.91;100.00;99925.13;3054123;19;1862;-52
2022/07/06 04:44:43;;;;;;;;;;;;;;;17.92;100.00;99927.66;3055182;19;920;-51
2022/07/06 04:45:45;;;;;;;;;;;;;;;17.96;100.00;99922.81;3054830;19;1260;-50
2022/07/06 04:46:49;;;;;;;;;;;;;;;17.98;100.00;99927.06;3055232;19;901;-52
2022/07/06 04:47:52;;;;;;;;;;;;;;;18.00;100.00;99933.13;3054985;19;927;-51
2022/07/06 04:48:56;;;;;;;;;;;;;;;18.10;100.00;99918.72;3055227;19;874;-51
2022/07/06 04:50:03;;;;;;;;;;;;;;;18.11;100.00;99937.47;3054974;19;2237;-51
2022/07/06 04:51:08;;;;;;;;;;;;;;;18.04;100.00;99919.31;3057011;19;955;-53
2022/07/06 04:52:09;;;;;;;;;;;;;;;18.17;100.00;99938.66;3057434;19;1476;-52
2022/07/06 04:53:14;;;;;;;;;;;;;;;18.26;100.00;99943.97;3058293;19;893;-52
2022/07/06 04:54:16;;;;;;;;;;;;;;;18.32;100.00;99935.25;3058347;19;880;-53
2022/07/06 04:55:21;;;;;;;;;;;;;;;18.27;100.00;99942.97;3057738;19;1206;-51
2022/07/06 04:56:23;;;;;;;;;;;;;;;18.29;100.00;99940.97;3058436;19;1133;-51
2022/07/06 04:57:29;;;;;;;;;;;;;;;18.25;100.00;99949.53;3057105;19;1760;-52
2022/07/06 04:58:33;;;;;;;;;;;;;;;18.26;100.00;99940.44;3058046;19;1194;-51
2022/07/06 04:59:37;;;;;;;;;;;;;;;18.28;100.00;99946.53;3057926;19;1168;-51
2022/07/06 05:00:39;;;;;;;;;;;;;;;18.30;100.00;99942.66;3058519;19;1403;-52
2022/07/06 05:01:44;;;;;;;;;;;;;;;18.38;100.00;99949.13;3057367;19;972;-52
2022/07/06 05:02:46;;;;;;;;;;;;;;;18.39;100.00;99938.16;3057641;19;956;-50
2022/07/06 05:03:50;;;;;;;;;;;;;;;18.31;100.00;99951.63;3056237;19;1853;-51
2022/07/06 05:04:55;;;;;;;;;;;;;;;18.32;100.00;99937.97;3057810;19;996;-50
2022/07/06 05:06:00;;;;;;;;;;;;;;;18.35;100.00;99940.31;3057638;19;948;-51
2022/07/06 05:07:02;;;;;;;;;;;;;;;18.37;100.00;99937.47;3057767;19;1466;-51
2022/07/06 05:08:07;;;;;;;;;;;;;;;18.42;100.00;99945.13;3056740;19;999;-50
2022/07/06 05:09:09;;;;;;;;;;;;;;;18.51;100.00;99931.50;3057629;19;1811;-52
2022/07/06 05:10:15;;;;;;;;;;;;;;;18.98;100.00;99926.56;3058138;19;1186;-50
2022/07/06 05:11:21;;;;;;;;;;;;;;;19.60;100.00;99916.31;3057706;19;959;-50
2022/07/06 05:12:26;;;;;;;;;;;;;;;19.62;100.00;99908.03;3057699;19;979;-51
2022/07/06 05:13:28;;;;;;;;;;;;;;;19.66;100.00;99915.66;3057793;19;949;-50
2022/07/06 05:14:33;;;;;;;;;;;;;;;19.75;100.00;99909.25;3057098;19;1054;-50
2022/07/06 05:15:35;;;;;;;;;;;;;;;19.83;100.00;99916.50;3057939;19;900;-51
2022/07/06 05:16:40;;;;;;;;;;;;;;;20.15;100.00;99910.28;3057671;19;960;-51
2022/07/06 05:17:42;;;;;;;;;;;;;;;20.12;100.00;99921.44;3058532;19;1467;-50
2022/07/06 05:18:47;;;;;;;;;;;;;;;20.11;100.00;99925.16;3057493;19;968;-51
2022/07/06 05:19:50;;;;;;;;;;;;;;;19.98;100.00;99922.97;3057932;19;1322;-50
2022/07/06 05:20:54;;;;;;;;;;;;;;;19.93;100.00;99922.59;3057692;19;1272;-51
2022/07/06 05:21:56;;;;;;;;;;;;;;;19.94;100.00;99923.47;3058100;19;868;-51
2022/07/06 05:23:01;;;;;;;;;;;;;;;19.96;100.00;99925.00;3058180;19;1484;-50
2022/07/06 05:24:05;;;;;;;;;;;;;;;19.97;100.00;99917.72;3057245;19;1866;-51
2022/07/06 05:25:10;;;;;;;;;;;;;;;20.06;100.00;99917.53;3057542;19;1704;-51
2022/07/06 05:26:12;;;;;;;;;;;;;;;20.20;100.00;99913.31;3059181;19;1877;-50
2022/07/06 05:27:16;;;;;;;;;;;;;;;20.33;100.00;99910.94;3059171;19;1240;-51
2022/07/06 05:28:19;;;;;;;;;;;;;;;20.40;100.00;99914.69;3057325;19;913;-51
2022/07/06 05:29:23;;;;;;;;;;;;;;;20.37;100.00;99922.31;3057682;19;955;-50
2022/07/06 05:30:26;;;;;;;;;;;;;;;20.44;100.00;99916.03;3057829;19;909;-51
2022/07/06 05:31:31;;;;;;;;;;;;;;;20.52;100.00;99915.19;3058967;19;1344;-50
2022/07/06 05:32:33;;;;;;;;;;;;;;;20.61;100.00;99913.28;3057632;19;950;-50
2022/07/06 05:33:38;;;;;;;;;;;;;;;20.70;100.00;99920.38;3057505;19;995;-51
2022/07/06 05:34:40;;;;;;;;;;;;;;;20.73;100.00;99920.03;3057774;19;924;-50
2022/07/06 05:35:44;;;;;;;;;;;;;;;20.77;100.00;99921.41;3057611;19;2345;-50
2022/07/06 05:36:55;;;;;;;;;;;;;;;20.77;100.00;99919.50;3058206;19;2214;-50
2022/07/06 05:38:00;;;;;;;;;;;;;;;20.53;100.00;99924.97;3057309;19;968;-51